Time;durP1;ratioP1;P1;durP2;ratioP2;P2;SDS_P1;SDS_P2;PMS_P1;PMS_P2;Temp;Humidity;BMP_temperature;BMP_pressure;BME280_temperature;BME280_humidity;BME280_pressure;Samples;Min_cycle;Max_cycle;Signal;HPM_P1;HPM_P2
2022/09/20 00:00:26;;;;;;;0.00;0.00;;;10.20;99.90;;;;;;5065567;28;20048;-79
2022/09/20 00:02:53;;;;;;;0.08;0.08;;;10.30;99.90;;;;;;5068241;28;20507;-79
2022/09/20 00:05:19;;;;;;;0.00;0.00;;;10.20;99.90;;;;;;5068359;28;20044;-79
2022/09/20 00:07:47;;;;;;;0.08;0.08;;;10.20;99.90;;;;;;5067819;28;20040;-79
2022/09/20 00:10:14;;;;;;;0.10;0.10;;;10.20;99.90;;;;;;5064341;28;20044;-77
2022/09/20 00:12:41;;;;;;;0.10;0.10;;;10.10;99.90;;;;;;5064197;28;20504;-79
2022/09/20 00:15:08;;;;;;;0.10;0.10;;;10.10;99.90;;;;;;5064479;28;20526;-79
2022/09/20 00:17:35;;;;;;;0.10;0.10;;;10.00;99.90;;;;;;5068382;28;20045;-79
2022/09/20 00:20:02;;;;;;;0.05;0.05;;;10.00;99.90;;;;;;5069389;28;20399;-77
2022/09/20 00:22:29;;;;;;;0.05;0.05;;;9.90;99.90;;;;;;5071380;28;20041;-80
2022/09/20 00:24:57;;;;;;;0.05;0.05;;;9.90;99.90;;;;;;5072284;28;20041;-77
2022/09/20 00:27:24;;;;;;;0.10;0.10;;;9.90;99.90;;;;;;5073724;28;20403;-80
2022/09/20 00:29:52;;;;;;;0.10;0.10;;;9.80;99.90;;;;;;5074260;28;20044;-78
2022/09/20 00:32:18;;;;;;;0.10;0.10;;;9.90;99.90;;;;;;5071431;28;20027;-78
2022/09/20 00:37:30;;;;;;;0.10;0.10;;;9.90;99.90;;;;;;5071725;28;20427;-79
2022/09/20 00:39:58;;;;;;;0.10;0.10;;;9.80;99.90;;;;;;5076460;28;20102;-79
2022/09/20 00:42:26;;;;;;;0.10;0.10;;;9.70;99.90;;;;;;5072436;28;20381;-79
2022/09/20 00:44:57;;;;;;;0.10;0.10;;;9.70;99.90;;;;;;5070418;28;20071;-79
2022/09/20 00:47:35;;;;;;;0.05;0.05;;;9.70;99.90;;;;;;5068028;28;20526;-79
2022/09/20 00:50:23;;;;;;;0.10;0.10;;;9.70;99.90;;;;;;5071935;28;20040;-78
2022/09/20 00:52:54;;;;;;;0.10;0.10;;;9.70;99.90;;;;;;5071556;28;20066;-78
2022/09/20 00:55:23;;;;;;;0.10;0.10;;;9.70;99.90;;;;;;5067891;28;20504;-78
2022/09/20 00:57:50;;;;;;;0.10;0.10;;;9.80;99.90;;;;;;5073682;28;20052;-79
2022/09/20 01:00:17;;;;;;;0.10;0.10;;;9.80;99.90;;;;;;5077979;28;20033;-79
2022/09/20 01:02:50;;;;;;;0.10;0.10;;;9.70;99.90;;;;;;5073829;28;20538;-79
2022/09/20 01:05:18;;;;;;;0.00;0.00;;;9.80;99.90;;;;;;5071079;28;20554;-79
2022/09/20 01:07:47;;;;;;;0.10;0.10;;;9.90;99.90;;;;;;5069489;28;20083;-80
2022/09/20 01:10:14;;;;;;;0.10;0.10;;;10.00;99.90;;;;;;5065337;28;20520;-80
2022/09/20 01:12:45;;;;;;;0.10;0.10;;;9.90;99.90;;;;;;5070078;28;20035;-79
2022/09/20 01:15:14;;;;;;;0.10;0.10;;;9.90;99.90;;;;;;5068025;28;20091;-78
2022/09/20 01:17:45;;;;;;;0.10;0.10;;;10.00;99.90;;;;;;5059365;28;20033;-78
2022/09/20 01:20:17;;;;;;;0.10;0.10;;;10.10;99.90;;;;;;5084483;28;20390;-80
2022/09/20 01:23:05;;;;;;;0.00;0.00;;;10.00;99.90;;;;;;5067102;28;20127;-79
2022/09/20 01:25:58;;;;;;;0.05;0.05;;;10.10;99.90;;;;;;5055404;28;20044;-80
2022/09/20 01:28:29;;;;;;;0.10;0.10;;;10.10;99.90;;;;;;5073850;28;20403;-79
2022/09/20 01:31:02;;;;;;;0.10;0.10;;;10.10;99.90;;;;;;5064067;28;20066;-79
2022/09/20 01:33:34;;;;;;;0.10;0.10;;;10.00;99.90;;;;;;5068383;28;20047;-79
2022/09/20 01:36:04;;;;;;;0.10;0.10;;;10.10;99.90;;;;;;5063548;28;20044;-78
2022/09/20 01:38:41;;;;;;;0.00;0.00;;;10.10;99.90;;;;;;5067045;28;20060;-78
2022/09/20 01:41:13;;;;;;;0.10;0.10;;;10.10;99.90;;;;;;5064817;28;20039;-78
2022/09/20 01:43:49;;;;;;;0.10;0.10;;;10.20;99.90;;;;;;5069305;28;20512;-79
2022/09/20 01:46:26;;;;;;;0.10;0.10;;;10.20;99.90;;;;;;5066866;28;20044;-78
2022/09/20 01:49:03;;;;;;;0.00;0.00;;;10.20;99.90;;;;;;5071709;28;20079;-79
2022/09/20 01:52:08;;;;;;;0.10;0.10;;;10.20;99.90;;;;;;5066566;28;20052;-79
2022/09/20 01:55:11;;;;;;;0.10;0.10;;;10.20;99.90;;;;;;5067213;28;20036;-79
2022/09/20 01:58:07;;;;;;;0.10;0.10;;;10.20;99.90;;;;;;5058763;28;20539;-79
2022/09/20 02:00:47;;;;;;;0.00;0.00;;;10.10;99.90;;;;;;5059699;28;20047;-77
2022/09/20 02:03:47;;;;;;;0.00;0.00;;;10.10;99.90;;;;;;5071876;28;20037;-79
2022/09/20 02:06:22;;;;;;;;;;;10.10;99.90;;;;;;5069029;28;20475;-79
2022/09/20 02:09:10;;;;;;;0.10;0.10;;;10.00;99.90;;;;;;5065672;28;19927;-79
2022/09/20 02:11:51;;;;;;;0.00;0.00;;;10.10;99.90;;;;;;5071889;28;20075;-77
2022/09/20 02:14:30;;;;;;;0.10;0.10;;;10.10;99.90;;;;;;5071141;28;20040;-78
2022/09/20 02:17:08;;;;;;;0.10;0.10;;;10.20;99.90;;;;;;5061232;28;20051;-79
2022/09/20 02:20:09;;;;;;;0.00;0.00;;;10.20;99.90;;;;;;5070331;28;20497;-79
2022/09/20 02:22:45;;;;;;;0.00;0.00;;;10.30;99.90;;;;;;5070268;28;20591;-81
2022/09/20 02:25:24;;;;;;;0.00;0.00;;;10.30;99.90;;;;;;5069050;28;20052;-77
2022/09/20 02:28:04;;;;;;;0.00;0.00;;;10.40;99.90;;;;;;5071043;28;20068;-79
2022/09/20 02:30:44;;;;;;;0.10;0.10;;;10.40;99.90;;;;;;5066814;28;20054;-77
2022/09/20 02:33:33;;;;;;;0.00;0.00;;;10.40;99.90;;;;;;5071239;28;20043;-79
2022/09/20 02:36:21;;;;;;;0.10;0.10;;;10.40;99.90;;;;;;5073086;28;20083;-79
2022/09/20 02:38:58;;;;;;;0.00;0.00;;;10.40;99.90;;;;;;5066677;28;20424;-80
2022/09/20 02:41:43;;;;;;;0.00;0.00;;;10.30;99.90;;;;;;5071583;28;20053;-80
2022/09/20 02:44:18;;;;;;;0.00;0.00;;;10.40;99.90;;;;;;5072421;28;20048;-79
2022/09/20 02:46:52;;;;;;;0.00;0.00;;;10.40;99.90;;;;;;5070659;28;20316;-80
2022/09/20 02:49:30;;;;;;;0.10;0.10;;;10.30;99.90;;;;;;5067469;28;20043;-78
2022/09/20 02:52:02;;;;;;;0.10;0.10;;;10.30;99.90;;;;;;5075318;28;20046;-79
2022/09/20 02:54:40;;;;;;;0.10;0.10;;;10.30;99.90;;;;;;5068803;28;20068;-79
2022/09/20 02:57:14;;;;;;;0.10;0.10;;;10.50;99.90;;;;;;5067827;28;20033;-79
2022/09/20 02:59:49;;;;;;;0.10;0.10;;;10.50;99.90;;;;;;5072034;28;20044;-77
2022/09/20 03:02:24;;;;;;;0.10;0.10;;;10.40;99.90;;;;;;5067669;28;20260;-77
2022/09/20 03:05:08;;;;;;;0.00;0.00;;;10.50;99.90;;;;;;5070128;28;20052;-79
2022/09/20 03:07:48;;;;;;;0.00;0.00;;;10.50;99.90;;;;;;5066617;28;20033;-81
2022/09/20 03:10:23;;;;;;;0.10;0.10;;;10.50;99.90;;;;;;5065636;28;20045;-79
2022/09/20 03:13:04;;;;;;;0.10;0.10;;;10.50;99.90;;;;;;5070042;28;20040;-79
2022/09/20 03:15:36;;;;;;;;;;;10.50;99.90;;;;;;5069987;28;20135;-77
2022/09/20 03:18:09;;;;;;;0.00;0.00;;;10.40;99.90;;;;;;5063790;28;19928;-78
2022/09/20 03:20:46;;;;;;;0.10;0.10;;;10.30;99.90;;;;;;5067721;28;20045;-77
2022/09/20 03:23:33;;;;;;;0.10;0.10;;;10.30;99.90;;;;;;5069007;28;20102;-79
2022/09/20 03:26:11;;;;;;;0.10;0.10;;;10.40;99.90;;;;;;5064090;28;20504;-80
2022/09/20 03:28:52;;;;;;;0.00;0.00;;;10.50;99.90;;;;;;5058789;28;20040;-78
2022/09/20 03:31:31;;;;;;;0.00;0.00;;;10.50;99.90;;;;;;5068338;28;20045;-79
2022/09/20 03:34:07;;;;;;;0.00;0.00;;;10.40;99.90;;;;;;5085150;28;20037;-78
2022/09/20 03:36:55;;;;;;;0.00;0.00;;;10.40;99.90;;;;;;5065584;28;20464;-77
2022/09/20 03:39:37;;;;;;;0.10;0.10;;;10.30;99.90;;;;;;5059252;28;20072;-80
2022/09/20 03:42:15;;;;;;;0.10;0.10;;;10.30;99.90;;;;;;5066984;28;20055;-78
2022/09/20 03:45:15;;;;;;;0.10;0.10;;;10.20;99.90;;;;;;5070147;28;20045;-77
2022/09/20 03:47:51;;;;;;;;;;;10.20;99.90;;;;;;5070362;28;20510;-77
2022/09/20 03:50:42;;;;;;;0.10;0.10;;;10.30;99.90;;;;;;5069561;28;20382;-78
2022/09/20 03:53:37;;;;;;;0.10;0.10;;;10.30;99.90;;;;;;5068458;28;20033;-79
2022/09/20 03:56:21;;;;;;;0.10;0.10;;;10.20;99.90;;;;;;5071274;28;20044;-81
2022/09/20 03:59:06;;;;;;;0.10;0.10;;;10.20;99.90;;;;;;5068946;28;20038;-79
2022/09/20 04:02:04;;;;;;;0.03;0.03;;;10.20;99.90;;;;;;5070192;28;20033;-79
2022/09/20 04:04:39;;;;;;;0.10;0.10;;;10.20;99.90;;;;;;5063589;28;20558;-79
2022/09/20 04:07:18;;;;;;;0.03;0.03;;;10.20;99.90;;;;;;5066544;28;20051;-79
2022/09/20 04:10:05;;;;;;;0.10;0.10;;;10.10;99.90;;;;;;5073168;28;20568;-80
2022/09/20 04:12:44;;;;;;;0.10;0.10;;;10.10;99.90;;;;;;5072005;28;20514;-79
2022/09/20 04:15:28;;;;;;;0.10;0.10;;;10.10;99.90;;;;;;5063485;28;20049;-80
2022/09/20 04:18:02;;;;;;;0.10;0.10;;;10.00;99.90;;;;;;5071818;28;20423;-81
2022/09/20 04:20:34;;;;;;;0.00;0.00;;;9.90;99.90;;;;;;5071181;28;20040;-79
2022/09/20 04:23:12;;;;;;;0.10;0.10;;;9.90;99.90;;;;;;5063358;28;20045;-79
2022/09/20 04:25:45;;;;;;;0.10;0.10;;;9.90;99.90;;;;;;5074315;28;20063;-78
2022/09/20 04:28:18;;;;;;;0.08;0.08;;;9.80;99.90;;;;;;5078311;28;20526;-79
2022/09/20 04:30:45;;;;;;;0.00;0.00;;;9.70;99.90;;;;;;5070649;28;20407;-79
2022/09/20 04:33:17;;;;;;;0.10;0.10;;;9.80;99.90;;;;;;5074312;28;20071;-80
2022/09/20 04:38:40;;;;;;;0.10;0.10;;;9.70;99.90;;;;;;5069543;28;20120;-79
2022/09/20 04:41:29;;;;;;;0.10;0.10;;;9.70;99.90;;;;;;5074440;28;20408;-79
2022/09/20 04:44:32;;;;;;;0.10;0.10;;;8.90;99.90;;;;;;5076196;28;20041;-80
2022/09/20 04:47:30;;;;;;;0.10;0.10;;;9.50;99.90;;;;;;5066786;28;20599;-79
2022/09/20 04:50:37;;;;;;;0.10;0.10;;;9.70;99.90;;;;;;5069623;28;20067;-79
2022/09/20 04:53:33;;;;;;;0.00;0.00;;;9.70;99.90;;;;;;5064117;28;20769;-80
2022/09/20 04:56:09;;;;;;;0.10;0.10;;;9.70;99.90;;;;;;5057008;28;20060;-79
2022/09/20 04:59:03;;;;;;;0.10;0.10;;;9.80;99.90;;;;;;5074020;28;20496;-79
2022/09/20 05:02:02;;;;;;;0.10;0.10;;;9.80;99.90;;;;;;5068467;28;20079;-79
2022/09/20 05:05:17;;;;;;;0.10;0.10;;;9.80;99.90;;;;;;5071306;28;20105;-80
2022/09/20 05:08:26;;;;;;;0.10;0.10;;;9.70;99.90;;;;;;5077623;28;20114;-79
2022/09/20 05:11:20;;;;;;;0.00;0.00;;;9.60;99.90;;;;;;5070259;28;20055;-79
2022/09/20 05:14:18;;;;;;;0.10;0.10;;;9.60;99.90;;;;;;5072470;28;20040;-80
2022/09/20 05:17:02;;;;;;;0.10;0.10;;;9.70;99.90;;;;;;5078689;28;20401;-78
2022/09/20 05:19:38;;;;;;;0.05;0.05;;;9.80;99.90;;;;;;5076663;28;20048;-77
2022/09/20 05:22:40;;;;;;;0.10;0.10;;;9.70;99.90;;;;;;5067812;28;20066;-79
2022/09/20 05:25:24;;;;;;;0.10;0.10;;;9.70;99.90;;;;;;5070942;28;20119;-79
2022/09/20 05:27:57;;;;;;;0.10;0.10;;;9.70;99.90;;;;;;5073726;28;20041;-79
2022/09/20 05:30:36;;;;;;;0.10;0.10;;;9.70;99.90;;;;;;5072718;28;20051;-80
2022/09/20 05:33:19;;;;;;;0.10;0.10;;;9.80;99.90;;;;;;5078809;28;20037;-79
2022/09/20 05:35:57;;;;;;;0.00;0.00;;;9.80;99.90;;;;;;5075998;28;20131;-79
2022/09/20 05:38:29;;;;;;;0.00;0.00;;;9.80;99.90;;;;;;5075184;28;20037;-79
2022/09/20 05:41:07;;;;;;;0.10;0.10;;;9.90;99.90;;;;;;5077165;28;20055;-81
2022/09/20 05:43:41;;;;;;;0.00;0.00;;;9.80;99.90;;;;;;5082894;28;20044;-79
2022/09/20 05:46:17;;;;;;;0.00;0.00;;;9.80;99.90;;;;;;5074095;28;20494;-80
2022/09/20 05:48:54;;;;;;;0.10;0.10;;;9.80;99.90;;;;;;5067666;28;20524;-79
2022/09/20 05:51:35;;;;;;;0.10;0.10;;;9.80;99.90;;;;;;5074503;28;20096;-79
2022/09/20 05:54:34;;;;;;;0.08;0.08;;;9.80;99.90;;;;;;5078305;28;20051;-80
2022/09/20 05:57:15;;;;;;;0.10;0.10;;;9.90;99.90;;;;;;5068261;28;20064;-79
2022/09/20 05:59:56;;;;;;;0.00;0.00;;;10.00;99.90;;;;;;5073077;28;20516;-80
2022/09/20 06:02:40;;;;;;;0.00;0.00;;;10.00;99.90;;;;;;5070686;28;20055;-78
2022/09/20 06:05:14;;;;;;;0.00;0.00;;;10.10;99.90;;;;;;5068918;28;20043;-79
2022/09/20 06:08:14;;;;;;;0.10;0.10;;;10.20;99.90;;;;;;5074296;28;20119;-79
2022/09/20 06:10:51;;;;;;;0.00;0.00;;;10.30;99.90;;;;;;5027610;28;20801;-79
2022/09/20 06:13:34;;;;;;;0.10;0.10;;;10.30;99.90;;;;;;5064623;28;20111;-79
2022/09/20 06:16:03;;;;;;;0.00;0.00;;;10.50;99.90;;;;;;5073263;28;20045;-79
2022/09/20 06:18:37;;;;;;;0.00;0.00;;;10.50;99.90;;;;;;5072574;28;20067;-79
2022/09/20 06:21:18;;;;;;;0.00;0.00;;;10.50;99.90;;;;;;5065942;28;20036;-79
2022/09/20 06:23:45;;;;;;;0.00;0.00;;;10.50;99.90;;;;;;5070512;28;20083;-79
2022/09/20 06:26:18;;;;;;;0.10;0.10;;;10.60;99.90;;;;;;5070437;28;20135;-79
2022/09/20 06:28:47;;;;;;;0.00;0.00;;;10.60;99.90;;;;;;5075540;28;20051;-80
2022/09/20 06:31:16;;;;;;;0.00;0.00;;;10.60;99.90;;;;;;5072343;28;20076;-79
2022/09/20 06:33:51;;;;;;;0.10;0.10;;;10.60;99.90;;;;;;5070618;28;20393;-79
2022/09/20 06:42:01;;;;;;;0.00;0.00;;;10.80;99.90;;;;;;5067298;28;20046;-80
2022/09/20 06:44:28;;;;;;;0.10;0.10;;;11.00;99.90;;;;;;5067054;28;20033;-78
2022/09/20 06:46:55;;;;;;;0.00;0.00;;;11.10;99.90;;;;;;5070086;28;20050;-80
2022/09/20 06:49:25;;;;;;;0.05;0.05;;;11.20;99.90;;;;;;5070917;28;20102;-77
2022/09/20 06:51:54;;;;;;;0.03;0.03;;;11.30;99.90;;;;;;5069260;28;20033;-78
2022/09/20 06:54:22;;;;;;;0.00;0.00;;;11.20;99.90;;;;;;5068520;28;20471;-77
2022/09/20 06:56:50;;;;;;;0.00;0.00;;;11.20;99.90;;;;;;5070786;28;20041;-79
2022/09/20 06:59:16;;;;;;;0.10;0.10;;;11.10;99.90;;;;;;5072806;28;20033;-79
2022/09/20 07:01:43;;;;;;;0.00;0.00;;;11.20;99.90;;;;;;5070018;28;20055;-79
2022/09/20 07:04:10;;;;;;;0.00;0.00;;;11.30;99.90;;;;;;5070555;28;20036;-77
2022/09/20 07:06:39;;;;;;;0.00;0.00;;;11.40;99.90;;;;;;5068395;28;20047;-79
2022/09/20 07:09:06;;;;;;;0.00;0.00;;;11.50;99.90;;;;;;5071317;28;20047;-79
2022/09/20 07:11:33;;;;;;;0.00;0.00;;;11.50;99.90;;;;;;5071893;28;20071;-78
2022/09/20 07:14:01;;;;;;;0.00;0.00;;;11.40;99.90;;;;;;5072660;28;20079;-80
2022/09/20 07:16:28;;;;;;;0.00;0.00;;;11.40;99.90;;;;;;5069304;28;20036;-78
2022/09/20 07:18:55;;;;;;;0.00;0.00;;;11.40;99.90;;;;;;5076411;28;20047;-79
2022/09/20 07:21:23;;;;;;;0.00;0.00;;;11.50;99.90;;;;;;5071580;28;20028;-77
2022/09/20 07:23:52;;;;;;;0.00;0.00;;;11.50;99.90;;;;;;5066866;28;20220;-79
2022/09/20 07:26:21;;;;;;;0.00;0.00;;;11.60;99.90;;;;;;5062802;28;20068;-77
2022/09/20 07:28:49;;;;;;;0.00;0.00;;;11.70;99.90;;;;;;5062077;28;20052;-79
2022/09/20 07:31:16;;;;;;;0.00;0.00;;;11.70;99.90;;;;;;5062389;28;20055;-80
2022/09/20 07:33:43;;;;;;;0.00;0.00;;;11.80;99.90;;;;;;5068103;28;20112;-79
2022/09/20 07:36:14;;;;;;;0.05;0.05;;;11.80;99.90;;;;;;5073036;28;20050;-79
2022/09/20 07:38:41;;;;;;;0.00;0.00;;;11.90;99.90;;;;;;5067886;28;20045;-78
2022/09/20 07:41:10;;;;;;;0.00;0.00;;;11.80;99.90;;;;;;5072180;28;20074;-80
2022/09/20 07:43:37;;;;;;;0.00;0.00;;;11.90;99.90;;;;;;5071853;28;20040;-79
2022/09/20 07:46:04;;;;;;;0.00;0.00;;;11.90;99.90;;;;;;5071341;28;20080;-79
2022/09/20 07:48:33;;;;;;;0.00;0.00;;;11.90;99.90;;;;;;5072363;28;20045;-78
2022/09/20 07:51:02;;;;;;;0.00;0.00;;;11.80;99.90;;;;;;5069022;28;20040;-80
2022/09/20 07:53:34;;;;;;;0.00;0.00;;;11.90;99.90;;;;;;5069259;28;20037;-79
2022/09/20 07:56:03;;;;;;;0.00;0.00;;;11.90;99.90;;;;;;5070404;28;20044;-79
2022/09/20 07:58:34;;;;;;;0.00;0.00;;;12.00;99.90;;;;;;5068516;28;20086;-78
2022/09/20 08:01:03;;;;;;;0.00;0.00;;;12.00;99.90;;;;;;5067762;28;20294;-79
2022/09/20 08:03:31;;;;;;;0.00;0.00;;;12.10;99.90;;;;;;5070062;28;20043;-80
2022/09/20 08:05:59;;;;;;;0.00;0.00;;;12.10;99.90;;;;;;5071221;28;20068;-78
2022/09/20 08:08:28;;;;;;;0.00;0.00;;;12.00;99.90;;;;;;5081926;28;20036;-80
2022/09/20 08:11:01;;;;;;;0.00;0.00;;;11.90;99.90;;;;;;5073159;28;20088;-79
2022/09/20 08:13:29;;;;;;;0.00;0.00;;;12.00;99.90;;;;;;5069634;28;20485;-80
2022/09/20 08:16:18;;;;;;;0.00;0.00;;;12.20;99.90;;;;;;5065957;28;20501;-80
2022/09/20 08:18:46;;;;;;;0.00;0.00;;;12.30;99.90;;;;;;5072849;28;20051;-79
2022/09/20 08:21:13;;;;;;;0.00;0.00;;;12.50;99.90;;;;;;5069933;28;20079;-78
2022/09/20 08:23:42;;;;;;;0.00;0.00;;;12.40;99.90;;;;;;5078049;28;20070;-77
2022/09/20 08:26:12;;;;;;;0.00;0.00;;;12.50;99.90;;;;;;5073058;28;20127;-80
2022/09/20 08:28:40;;;;;;;0.00;0.00;;;12.50;99.90;;;;;;5070123;28;20048;-79
2022/09/20 08:31:09;;;;;;;0.00;0.00;;;12.50;99.90;;;;;;5069438;28;20048;-79
2022/09/20 08:33:38;;;;;;;0.00;0.00;;;12.50;99.90;;;;;;5077022;28;20076;-79
2022/09/20 08:36:06;;;;;;;0.00;0.00;;;12.50;99.90;;;;;;5070967;28;20484;-80
2022/09/20 08:38:33;;;;;;;0.00;0.00;;;12.40;99.90;;;;;;5072521;28;20041;-79
2022/09/20 08:41:24;;;;;;;0.00;0.00;;;12.50;99.90;;;;;;5072532;28;20051;-78
2022/09/20 08:43:55;;;;;;;0.00;0.00;;;12.40;99.90;;;;;;5074897;28;20120;-79
2022/09/20 08:46:27;;;;;;;0.00;0.00;;;12.30;99.90;;;;;;5056649;28;20037;-79
2022/09/20 08:48:56;;;;;;;0.00;0.00;;;12.60;99.90;;;;;;5072836;28;20044;-80
2022/09/20 08:51:29;;;;;;;0.00;0.00;;;12.70;99.90;;;;;;5064360;28;20412;-80
2022/09/20 08:53:57;;;;;;;0.00;0.00;;;12.70;99.90;;;;;;5065067;28;20036;-80
2022/09/20 08:56:28;;;;;;;0.00;0.00;;;12.70;99.90;;;;;;5073683;28;20611;-79
2022/09/20 08:58:59;;;;;;;0.00;0.00;;;12.60;99.90;;;;;;5076882;28;20040;-78
2022/09/20 09:01:28;;;;;;;0.00;0.00;;;12.60;99.90;;;;;;5075281;28;20391;-78
2022/09/20 09:04:01;;;;;;;0.00;0.00;;;12.70;99.90;;;;;;5068346;28;20399;-80
2022/09/20 09:06:27;;;;;;;0.00;0.00;;;12.50;99.90;;;;;;5071150;28;20090;-79
2022/09/20 09:09:04;;;;;;;0.00;0.00;;;12.60;99.90;;;;;;5068424;28;20051;-80
2022/09/20 09:11:30;;;;;;;0.00;0.00;;;12.40;99.90;;;;;;5064214;28;20094;-79
2022/09/20 09:14:01;;;;;;;0.00;0.00;;;12.50;99.90;;;;;;5069751;28;20407;-80
2022/09/20 09:16:31;;;;;;;0.00;0.00;;;12.40;99.90;;;;;;5068403;28;20076;-79
2022/09/20 09:19:27;;;;;;;0.00;0.00;;;12.60;99.90;;;;;;5069409;28;20463;-79
2022/09/20 09:22:03;;;;;;;0.00;0.00;;;12.80;99.90;;;;;;5064029;28;20055;-79
2022/09/20 09:24:31;;;;;;;0.00;0.00;;;13.10;99.90;;;;;;5069539;28;20417;-79
2022/09/20 09:27:07;;;;;;;0.00;0.00;;;13.20;99.90;;;;;;5082026;28;20036;-79
2022/09/20 09:29:33;;;;;;;0.03;0.03;;;13.50;99.90;;;;;;5069689;28;20043;-77
2022/09/20 09:32:19;;;;;;;0.00;0.00;;;13.60;99.90;;;;;;5068320;28;20028;-78
2022/09/20 09:34:48;;;;;;;0.00;0.00;;;13.30;99.90;;;;;;5068652;28;20401;-76
2022/09/20 09:37:24;;;;;;;0.00;0.00;;;13.20;99.90;;;;;;5067393;28;20047;-79
2022/09/20 09:40:12;;;;;;;0.08;0.08;;;13.20;99.90;;;;;;5067584;28;20062;-80
2022/09/20 09:42:48;;;;;;;0.00;0.00;;;13.10;99.90;;;;;;5069197;28;20052;-80
2022/09/20 09:45:29;;;;;;;0.00;0.00;;;13.30;99.90;;;;;;5072200;28;20067;-79
2022/09/20 09:47:58;;;;;;;0.05;0.05;;;13.30;99.90;;;;;;5074974;28;20040;-78
2022/09/20 09:50:29;;;;;;;0.00;0.00;;;13.10;99.90;;;;;;5079638;28;20050;-79
2022/09/20 09:53:10;;;;;;;0.00;0.00;;;13.00;99.90;;;;;;5075950;28;20071;-78
2022/09/20 09:56:05;;;;;;;0.00;0.00;;;13.00;99.90;;;;;;5075350;28;20037;-79
2022/09/20 09:58:43;;;;;;;;;;;13.00;99.90;;;;;;5064401;28;20058;-75
2022/09/20 10:01:22;;;;;;;0.00;0.00;;;12.90;99.90;;;;;;5081317;28;20291;-80
2022/09/20 10:03:57;;;;;;;0.00;0.00;;;13.00;99.90;;;;;;5070696;28;20100;-80
2022/09/20 10:06:32;;;;;;;0.00;0.00;;;13.20;99.90;;;;;;5072696;28;20032;-78
2022/09/20 10:09:16;;;;;;;0.00;0.00;;;13.20;99.90;;;;;;5068674;28;20076;-80
2022/09/20 10:12:02;;;;;;;0.00;0.00;;;13.30;99.90;;;;;;5076496;28;20074;-79
2022/09/20 10:14:43;;;;;;;0.00;0.00;;;13.30;99.90;;;;;;5077016;28;20043;-79
2022/09/20 10:17:33;;;;;;;0.00;0.00;;;13.20;99.90;;;;;;5068946;28;20138;-79
2022/09/20 10:20:20;;;;;;;0.00;0.00;;;13.10;99.90;;;;;;5067264;28;20048;-81
2022/09/20 10:22:57;;;;;;;0.00;0.00;;;13.10;99.90;;;;;;5065744;28;20086;-79
2022/09/20 10:25:50;;;;;;;0.00;0.00;;;13.10;99.90;;;;;;5064003;28;20065;-79
2022/09/20 10:28:31;;;;;;;0.00;0.00;;;13.30;99.90;;;;;;5057650;28;20112;-78
2022/09/20 10:31:04;;;;;;;0.00;0.00;;;13.20;99.90;;;;;;5066081;28;20036;-79
2022/09/20 10:33:37;;;;;;;0.00;0.00;;;13.40;99.90;;;;;;5064670;28;20555;-77
2022/09/20 10:36:17;;;;;;;0.00;0.00;;;13.30;99.90;;;;;;5080375;28;20460;-79
2022/09/20 10:38:50;;;;;;;;;;;13.40;99.90;;;;;;5079710;28;20154;-80
2022/09/20 10:44:37;;;;;;;0.00;0.00;;;13.50;99.90;;;;;;5065654;28;20044;-77
2022/09/20 10:47:09;;;;;;;0.00;0.00;;;13.70;99.90;;;;;;5070253;28;20416;-79
2022/09/20 10:49:41;;;;;;;0.00;0.00;;;13.80;99.90;;;;;;5082185;28;20044;-78
2022/09/20 10:52:25;;;;;;;0.00;0.00;;;13.80;99.90;;;;;;5075668;28;20047;-79
2022/09/20 10:55:07;;;;;;;0.00;0.00;;;14.00;99.90;;;;;;5075274;28;20037;-81
2022/09/20 10:57:52;;;;;;;0.00;0.00;;;14.10;99.90;;;;;;5070919;28;20056;-78
2022/09/20 11:00:22;;;;;;;0.00;0.00;;;14.10;99.90;;;;;;5067142;28;20058;-80
2022/09/20 11:03:03;;;;;;;0.00;0.00;;;14.20;99.90;;;;;;5064069;28;20556;-79
2022/09/20 11:05:45;;;;;;;0.00;0.00;;;14.40;99.90;;;;;;5072374;28;20087;-80
2022/09/20 11:08:17;;;;;;;0.00;0.00;;;14.60;99.90;;;;;;5067785;28;20516;-80
2022/09/20 11:10:50;;;;;;;0.00;0.00;;;14.70;99.90;;;;;;5066034;28;20312;-78
2022/09/20 11:13:25;;;;;;;0.00;0.00;;;14.80;99.90;;;;;;5080124;28;20096;-80
2022/09/20 11:15:59;;;;;;;0.00;0.00;;;14.70;99.90;;;;;;5063174;28;20044;-79
2022/09/20 11:18:32;;;;;;;0.00;0.00;;;14.70;99.90;;;;;;5071796;28;20462;-77
2022/09/20 11:21:06;;;;;;;0.00;0.00;;;14.60;99.90;;;;;;5081434;28;20036;-81
2022/09/20 11:23:43;;;;;;;0.00;0.00;;;14.50;99.30;;;;;;5069044;28;20492;-79
2022/09/20 11:26:19;;;;;;;0.00;0.00;;;14.40;98.90;;;;;;5074226;28;20094;-79
2022/09/20 11:28:51;;;;;;;0.00;0.00;;;14.30;99.00;;;;;;5072269;28;20055;-79
2022/09/20 11:31:23;;;;;;;0.00;0.00;;;14.20;99.80;;;;;;5072031;28;20036;-79
2022/09/20 11:33:55;;;;;;;0.00;0.00;;;14.30;98.90;;;;;;5074852;28;20048;-80
2022/09/20 11:36:29;;;;;;;0.00;0.00;;;14.30;99.10;;;;;;5060250;28;20037;-80
2022/09/20 11:39:02;;;;;;;0.00;0.00;;;14.10;98.60;;;;;;5065345;28;20028;-79
2022/09/20 11:41:30;;;;;;;0.00;0.00;;;14.00;98.60;;;;;;5061786;28;20492;-77
2022/09/20 11:44:03;;;;;;;0.00;0.00;;;13.90;99.40;;;;;;5067216;28;20404;-79
2022/09/20 11:46:34;;;;;;;0.00;0.00;;;14.00;99.30;;;;;;5061051;28;20065;-78
2022/09/20 11:49:06;;;;;;;0.00;0.00;;;14.10;99.90;;;;;;5072375;28;20550;-80
2022/09/20 11:52:02;;;;;;;0.00;0.00;;;14.10;99.90;;;;;;5060996;28;20045;-78
2022/09/20 11:54:53;;;;;;;0.00;0.00;;;14.20;99.60;;;;;;5049636;28;20052;-80
2022/09/20 11:57:22;;;;;;;0.00;0.00;;;14.30;99.90;;;;;;5066326;28;20071;-77
2022/09/20 11:59:53;;;;;;;0.10;0.10;;;14.20;99.90;;;;;;5060522;28;20052;-80
2022/09/20 12:02:27;;;;;;;0.00;0.00;;;14.20;99.90;;;;;;5058546;28;20154;-78
2022/09/20 12:04:55;;;;;;;0.00;0.00;;;14.30;99.90;;;;;;5063856;28;21967;-79
2022/09/20 12:07:24;;;;;;;0.00;0.00;;;14.30;99.90;;;;;;5062825;28;20049;-79
2022/09/20 12:09:55;;;;;;;0.00;0.00;;;14.30;97.80;;;;;;5067204;28;20045;-80
2022/09/20 12:12:36;;;;;;;0.00;0.00;;;14.40;99.70;;;;;;5066215;28;20040;-80
2022/09/20 12:15:06;;;;;;;0.00;0.00;;;14.30;99.40;;;;;;5067196;28;20045;-79
2022/09/20 12:18:11;;;;;;;0.00;0.00;;;14.10;97.80;;;;;;5069635;28;20049;-77
2022/09/20 12:21:10;;;;;;;0.00;0.00;;;13.90;98.10;;;;;;5086959;28;20041;-79
2022/09/20 12:24:00;;;;;;;0.00;0.00;;;14.00;98.40;;;;;;5071707;28;20049;-76
2022/09/20 12:26:42;;;;;;;0.00;0.00;;;14.10;97.90;;;;;;5058302;28;20123;-80
2022/09/20 12:29:51;;;;;;;0.00;0.00;;;14.20;98.80;;;;;;5060300;28;20041;-79
2022/09/20 12:32:51;;;;;;;0.00;0.00;;;14.10;98.50;;;;;;5064397;28;20111;-77
2022/09/20 12:35:55;;;;;;;0.00;0.00;;;14.20;99.70;;;;;;5055231;28;20025;-77
2022/09/20 12:38:41;;;;;;;0.00;0.00;;;14.30;99.50;;;;;;5060351;28;20068;-80
2022/09/20 12:41:12;;;;;;;0.00;0.00;;;14.50;99.70;;;;;;5065928;28;20056;-81
2022/09/20 12:43:49;;;;;;;0.00;0.00;;;14.60;99.40;;;;;;5059931;28;20079;-80
2022/09/20 12:46:23;;;;;;;0.00;0.00;;;14.70;99.90;;;;;;5056340;28;20056;-80
2022/09/20 12:52:49;;;;;;;0.00;0.00;;;14.90;99.40;;;;;;5061143;28;20041;-81
2022/09/20 12:54:51;;;;;;;0.00;0.00;;;15.50;98.00;;;;;;5066337;28;21427;-80
2022/09/20 12:57:30;;;;;;;0.00;0.00;;;15.50;96.90;;;;;;5061607;28;20065;-79
2022/09/20 13:00:00;;;;;;;0.00;0.00;;;15.50;97.30;;;;;;5063084;28;20123;-79
2022/09/20 13:02:57;;;;;;;;;;;15.40;96.80;;;;;;5065257;28;20040;-80
2022/09/20 13:05:35;;;;;;;0.00;0.00;;;15.30;97.90;;;;;;5005915;28;19928;-79
2022/09/20 13:08:11;;;;;;;0.00;0.00;;;15.00;99.60;;;;;;5052120;28;20076;-81
2022/09/20 13:10:42;;;;;;;0.00;0.00;;;14.80;99.90;;;;;;5060955;28;20154;-80
2022/09/20 13:13:32;;;;;;;0.00;0.00;;;14.70;99.90;;;;;;5061537;28;20032;-80
2022/09/20 13:16:00;;;;;;;0.00;0.00;;;14.80;99.90;;;;;;5064036;28;20040;-81
2022/09/20 13:18:28;;;;;;;0.00;0.00;;;15.10;99.90;;;;;;5064253;28;20073;-79
2022/09/20 13:20:59;;;;;;;0.00;0.00;;;15.40;99.90;;;;;;5065848;28;20139;-81
2022/09/20 13:23:28;;;;;;;0.00;0.00;;;15.70;99.90;;;;;;5062368;28;20462;-79
2022/09/20 13:26:01;;;;;;;0.00;0.00;;;15.90;98.10;;;;;;5068315;28;20059;-79
2022/09/20 13:28:33;;;;;;;0.00;0.00;;;16.00;97.80;;;;;;5061209;28;20159;-79
2022/09/20 13:31:23;;;;;;;0.00;0.00;;;16.20;97.40;;;;;;5071228;28;20044;-79
2022/09/20 13:33:50;;;;;;;0.00;0.00;;;16.20;96.70;;;;;;5073629;28;20097;-80
2022/09/20 13:36:25;;;;;;;0.00;0.00;;;16.20;96.60;;;;;;5077210;28;20043;-79
2022/09/20 13:38:54;;;;;;;0.00;0.00;;;16.30;96.30;;;;;;5072596;28;20060;-79
2022/09/20 13:41:21;;;;;;;0.00;0.00;;;15.90;96.80;;;;;;5068249;28;20067;-79
2022/09/20 13:43:49;;;;;;;0.08;0.08;;;15.60;96.80;;;;;;5067005;28;20228;-79
2022/09/20 13:46:21;;;;;;;0.00;0.00;;;15.40;96.90;;;;;;5067649;28;20135;-80
2022/09/20 13:48:53;;;;;;;0.00;0.00;;;15.20;98.00;;;;;;5061515;28;20124;-79
2022/09/20 13:51:24;;;;;;;0.00;0.00;;;14.60;99.90;;;;;;5064139;28;20116;-80
2022/09/20 13:53:51;;;;;;;0.00;0.00;;;13.90;99.90;;;;;;5065470;28;20128;-79
2022/09/20 13:56:21;;;;;;;0.00;0.00;;;13.20;99.90;;;;;;5060757;28;20109;-80